sensor_id;sensor_type;location;lat;lon;timestamp;temperature;humidity
65637;DHT22;52327;42.622;23.316;2023-02-19T00:01:37;6.50;62.13
65637;DHT22;52327;42.622;23.316;2023-02-19T00:04:14;6.52;61.90
65637;DHT22;52327;42.622;23.316;2023-02-19T00:06:41;6.41;62.32
65637;DHT22;52327;42.622;23.316;2023-02-19T00:09:09;6.36;61.97
65637;DHT22;52327;42.622;23.316;2023-02-19T00:11:34;6.48;60.86
65637;DHT22;52327;42.622;23.316;2023-02-19T00:14:01;6.41;60.87
65637;DHT22;52327;42.622;23.316;2023-02-19T00:16:31;6.66;59.64
65637;DHT22;52327;42.622;23.316;2023-02-19T00:18:58;6.68;60.60
65637;DHT22;52327;42.622;23.316;2023-02-19T00:21:24;6.59;61.04
65637;DHT22;52327;42.622;23.316;2023-02-19T00:23:51;6.73;60.94
65637;DHT22;52327;42.622;23.316;2023-02-19T00:26:17;6.62;61.43
65637;DHT22;52327;42.622;23.316;2023-02-19T00:28:43;6.55;59.87
65637;DHT22;52327;42.622;23.316;2023-02-19T00:31:29;6.62;60.67
65637;DHT22;52327;42.622;23.316;2023-02-19T00:33:57;6.69;61.20
65637;DHT22;52327;42.622;23.316;2023-02-19T00:36:23;6.65;61.29
65637;DHT22;52327;42.622;23.316;2023-02-19T00:38:49;6.45;62.24
65637;DHT22;52327;42.622;23.316;2023-02-19T00:41:16;6.42;61.85
65637;DHT22;52327;42.622;23.316;2023-02-19T00:46:16;6.28;62.67
65637;DHT22;52327;42.622;23.316;2023-02-19T00:48:42;6.24;62.87
65637;DHT22;52327;42.622;23.316;2023-02-19T00:51:07;6.48;61.04
65637;DHT22;52327;42.622;23.316;2023-02-19T00:53:33;6.38;62.39
65637;DHT22;52327;42.622;23.316;2023-02-19T00:55:58;6.48;60.54
65637;DHT22;52327;42.622;23.316;2023-02-19T00:58:23;6.66;61.64
65637;DHT22;52327;42.622;23.316;2023-02-19T01:00:49;6.63;62.50
65637;DHT22;52327;42.622;23.316;2023-02-19T01:03:14;6.50;62.80
65637;DHT22;52327;42.622;23.316;2023-02-19T01:05:40;6.55;62.53
65637;DHT22;52327;42.622;23.316;2023-02-19T01:08:05;6.53;62.22
65637;DHT22;52327;42.622;23.316;2023-02-19T01:10:30;6.48;62.32
65637;DHT22;52327;42.622;23.316;2023-02-19T01:12:56;6.38;62.32
65637;DHT22;52327;42.622;23.316;2023-02-19T01:15:21;6.31;62.95
65637;DHT22;52327;42.622;23.316;2023-02-19T01:17:47;6.31;62.52
65637;DHT22;52327;42.622;23.316;2023-02-19T01:20:12;6.48;61.66
65637;DHT22;52327;42.622;23.316;2023-02-19T01:22:38;6.46;61.16
65637;DHT22;52327;42.622;23.316;2023-02-19T01:25:03;6.36;61.26
65637;DHT22;52327;42.622;23.316;2023-02-19T01:27:29;6.45;60.93
65637;DHT22;52327;42.622;23.316;2023-02-19T01:29:54;6.39;60.80
65637;DHT22;52327;42.622;23.316;2023-02-19T01:32:20;6.31;60.91
65637;DHT22;52327;42.622;23.316;2023-02-19T01:34:45;6.42;60.94
65637;DHT22;52327;42.622;23.316;2023-02-19T01:37:11;6.39;60.44
65637;DHT22;52327;42.622;23.316;2023-02-19T01:39:39;6.36;61.16
65637;DHT22;52327;42.622;23.316;2023-02-19T01:42:14;6.28;61.11
65637;DHT22;52327;42.622;23.316;2023-02-19T01:47:09;6.25;61.55
65637;DHT22;52327;42.622;23.316;2023-02-19T01:49:41;6.18;62.47
65637;DHT22;52327;42.622;23.316;2023-02-19T01:54:53;6.10;62.11
65637;DHT22;52327;42.622;23.316;2023-02-19T01:57:23;6.01;62.76
65637;DHT22;52327;42.622;23.316;2023-02-19T01:59:50;6.00;62.25
65637;DHT22;52327;42.622;23.316;2023-02-19T02:02:23;5.90;62.48
65637;DHT22;52327;42.622;23.316;2023-02-19T02:04:51;5.88;62.82
65637;DHT22;52327;42.622;23.316;2023-02-19T02:07:17;5.84;63.46
65637;DHT22;52327;42.622;23.316;2023-02-19T02:10:02;5.87;62.51
65637;DHT22;52327;42.622;23.316;2023-02-19T02:12:49;6.02;61.87
65637;DHT22;52327;42.622;23.316;2023-02-19T02:15:16;6.11;61.91
65637;DHT22;52327;42.622;23.316;2023-02-19T02:17:53;6.22;61.34
65637;DHT22;52327;42.622;23.316;2023-02-19T02:23:15;6.39;61.05
65637;DHT22;52327;42.622;23.316;2023-02-19T02:31:14;6.36;60.57
65637;DHT22;52327;42.622;23.316;2023-02-19T02:33:54;6.28;61.30
65637;DHT22;52327;42.622;23.316;2023-02-19T02:36:30;6.18;61.92
65637;DHT22;52327;42.622;23.316;2023-02-19T02:38:57;6.12;61.75
65637;DHT22;52327;42.622;23.316;2023-02-19T02:41:24;6.20;61.18
65637;DHT22;52327;42.622;23.316;2023-02-19T02:43:49;6.32;60.13
65637;DHT22;52327;42.622;23.316;2023-02-19T02:46:19;6.35;60.31
65637;DHT22;52327;42.622;23.316;2023-02-19T02:48:48;6.48;59.99
65637;DHT22;52327;42.622;23.316;2023-02-19T02:51:26;6.55;59.59
65637;DHT22;52327;42.622;23.316;2023-02-19T02:56:49;6.65;59.10
65637;DHT22;52327;42.622;23.316;2023-02-19T02:59:17;6.80;58.59
65637;DHT22;52327;42.622;23.316;2023-02-19T03:01:57;7.32;55.61
65637;DHT22;52327;42.622;23.316;2023-02-19T03:08:10;8.93;50.51
65637;DHT22;52327;42.622;23.316;2023-02-19T03:10:40;9.28;49.77
65637;DHT22;52327;42.622;23.316;2023-02-19T03:13:10;8.75;51.32
65637;DHT22;52327;42.622;23.316;2023-02-19T03:15:58;8.43;52.78
65637;DHT22;52327;42.622;23.316;2023-02-19T03:18:49;8.32;52.23
65637;DHT22;52327;42.622;23.316;2023-02-19T03:21:37;9.01;50.46
65637;DHT22;52327;42.622;23.316;2023-02-19T03:24:04;9.35;49.62
65637;DHT22;52327;42.622;23.316;2023-02-19T03:26:51;9.22;50.38
65637;DHT22;52327;42.622;23.316;2023-02-19T03:29:22;9.04;50.98
65637;DHT22;52327;42.622;23.316;2023-02-19T03:31:53;8.65;52.01
65637;DHT22;52327;42.622;23.316;2023-02-19T03:34:28;8.27;53.64
65637;DHT22;52327;42.622;23.316;2023-02-19T03:37:02;8.17;53.88
65637;DHT22;52327;42.622;23.316;2023-02-19T03:39:28;8.02;54.82
65637;DHT22;52327;42.622;23.316;2023-02-19T03:44:34;7.65;55.84
65637;DHT22;52327;42.622;23.316;2023-02-19T03:47:37;7.34;56.57
65637;DHT22;52327;42.622;23.316;2023-02-19T03:50:23;7.43;55.79
65637;DHT22;52327;42.622;23.316;2023-02-19T03:58:19;8.70;52.27
65637;DHT22;52327;42.622;23.316;2023-02-19T04:00:56;9.12;51.28
65637;DHT22;52327;42.622;23.316;2023-02-19T04:03:55;9.11;51.30
65637;DHT22;52327;42.622;23.316;2023-02-19T04:06:26;8.53;52.74
65637;DHT22;52327;42.622;23.316;2023-02-19T04:08:55;8.36;53.52
65637;DHT22;52327;42.622;23.316;2023-02-19T04:11:22;8.14;54.53
65637;DHT22;52327;42.622;23.316;2023-02-19T04:14:01;8.00;54.72
65637;DHT22;52327;42.622;23.316;2023-02-19T04:16:29;7.85;55.47
65637;DHT22;52327;42.622;23.316;2023-02-19T04:19:01;7.58;55.93
65637;DHT22;52327;42.622;23.316;2023-02-19T04:21:29;7.43;56.76
65637;DHT22;52327;42.622;23.316;2023-02-19T04:23:57;7.28;57.89
65637;DHT22;52327;42.622;23.316;2023-02-19T04:26:23;7.15;58.25
65637;DHT22;52327;42.622;23.316;2023-02-19T04:28:49;7.03;58.08
65637;DHT22;52327;42.622;23.316;2023-02-19T04:31:14;6.94;58.05
65637;DHT22;52327;42.622;23.316;2023-02-19T04:33:39;6.75;58.72
65637;DHT22;52327;42.622;23.316;2023-02-19T04:36:06;6.71;59.08
65637;DHT22;52327;42.622;23.316;2023-02-19T04:38:32;6.39;59.85
65637;DHT22;52327;42.622;23.316;2023-02-19T04:40:57;6.21;60.42
65637;DHT22;52327;42.622;23.316;2023-02-19T04:43:22;6.17;60.42
65637;DHT22;52327;42.622;23.316;2023-02-19T04:45:48;6.20;60.74
65637;DHT22;52327;42.622;23.316;2023-02-19T04:48:13;6.41;60.07
65637;DHT22;52327;42.622;23.316;2023-02-19T04:50:39;7.10;58.68
65637;DHT22;52327;42.622;23.316;2023-02-19T04:53:05;7.93;56.20
65637;DHT22;52327;42.622;23.316;2023-02-19T04:55:30;8.06;55.32
65637;DHT22;52327;42.622;23.316;2023-02-19T04:57:56;7.85;55.77
65637;DHT22;52327;42.622;23.316;2023-02-19T05:00:21;8.07;56.05
65637;DHT22;52327;42.622;23.316;2023-02-19T05:02:47;8.47;54.87
65637;DHT22;52327;42.622;23.316;2023-02-19T05:05:12;8.91;53.55
65637;DHT22;52327;42.622;23.316;2023-02-19T05:07:38;9.14;53.03
65637;DHT22;52327;42.622;23.316;2023-02-19T05:10:03;9.23;52.74
65637;DHT22;52327;42.622;23.316;2023-02-19T05:12:29;9.33;52.89
65637;DHT22;52327;42.622;23.316;2023-02-19T05:14:55;9.40;52.76
65637;DHT22;52327;42.622;23.316;2023-02-19T05:17:21;9.38;52.55
65637;DHT22;52327;42.622;23.316;2023-02-19T05:19:46;9.40;52.76
65637;DHT22;52327;42.622;23.316;2023-02-19T05:22:12;9.52;53.06
65637;DHT22;52327;42.622;23.316;2023-02-19T05:24:37;9.57;52.63
65637;DHT22;52327;42.622;23.316;2023-02-19T05:27:03;9.56;53.00
65637;DHT22;52327;42.622;23.316;2023-02-19T05:29:30;9.54;53.17
65637;DHT22;52327;42.622;23.316;2023-02-19T05:31:55;9.47;52.80
65637;DHT22;52327;42.622;23.316;2023-02-19T05:34:21;9.53;52.80
65637;DHT22;52327;42.622;23.316;2023-02-19T05:36:46;9.53;52.54
65637;DHT22;52327;42.622;23.316;2023-02-19T05:39:12;9.56;52.59
65637;DHT22;52327;42.622;23.316;2023-02-19T05:41:37;9.63;52.45
65637;DHT22;52327;42.622;23.316;2023-02-19T05:44:03;9.64;52.60
65637;DHT22;52327;42.622;23.316;2023-02-19T05:46:29;9.56;52.87
65637;DHT22;52327;42.622;23.316;2023-02-19T05:48:55;9.57;52.78
65637;DHT22;52327;42.622;23.316;2023-02-19T05:51:24;9.61;52.72
65637;DHT22;52327;42.622;23.316;2023-02-19T05:53:50;9.71;52.39
65637;DHT22;52327;42.622;23.316;2023-02-19T05:58:50;9.80;52.36
65637;DHT22;52327;42.622;23.316;2023-02-19T06:01:16;9.90;51.93
65637;DHT22;52327;42.622;23.316;2023-02-19T06:03:42;9.80;52.25
65637;DHT22;52327;42.622;23.316;2023-02-19T06:06:11;9.80;52.08
65637;DHT22;52327;42.622;23.316;2023-02-19T06:08:37;9.86;51.97
65637;DHT22;52327;42.622;23.316;2023-02-19T06:11:02;9.81;52.15
65637;DHT22;52327;42.622;23.316;2023-02-19T06:13:27;9.91;52.12
65637;DHT22;52327;42.622;23.316;2023-02-19T06:15:53;9.83;52.39
65637;DHT22;52327;42.622;23.316;2023-02-19T06:18:18;9.86;52.49
65637;DHT22;52327;42.622;23.316;2023-02-19T06:20:44;9.76;52.54
65637;DHT22;52327;42.622;23.316;2023-02-19T06:23:09;9.77;52.61
65637;DHT22;52327;42.622;23.316;2023-02-19T06:25:34;9.87;52.74
65637;DHT22;52327;42.622;23.316;2023-02-19T06:28:00;9.81;52.20
65637;DHT22;52327;42.622;23.316;2023-02-19T06:30:25;9.67;52.60
65637;DHT22;52327;42.622;23.316;2023-02-19T06:32:52;9.66;53.00
65637;DHT22;52327;42.622;23.316;2023-02-19T06:35:18;9.79;52.80
65637;DHT22;52327;42.622;23.316;2023-02-19T06:37:46;9.90;52.44
65637;DHT22;52327;42.622;23.316;2023-02-19T06:40:11;9.86;52.27
65637;DHT22;52327;42.622;23.316;2023-02-19T06:42:37;9.93;52.57
65637;DHT22;52327;42.622;23.316;2023-02-19T06:45:02;9.90;52.30
65637;DHT22;52327;42.622;23.316;2023-02-19T06:47:31;9.79;52.59
65637;DHT22;52327;42.622;23.316;2023-02-19T06:49:58;9.74;52.38
65637;DHT22;52327;42.622;23.316;2023-02-19T06:52:23;9.74;52.79
65637;DHT22;52327;42.622;23.316;2023-02-19T06:54:49;9.81;52.92
65637;DHT22;52327;42.622;23.316;2023-02-19T06:57:14;10.03;51.88
65637;DHT22;52327;42.622;23.316;2023-02-19T06:59:39;10.10;51.36
65637;DHT22;52327;42.622;23.316;2023-02-19T07:02:06;10.21;51.17
65637;DHT22;52327;42.622;23.316;2023-02-19T07:04:31;10.20;51.79
65637;DHT22;52327;42.622;23.316;2023-02-19T07:06:57;10.15;52.02
65637;DHT22;52327;42.622;23.316;2023-02-19T07:09:24;10.11;52.28
65637;DHT22;52327;42.622;23.316;2023-02-19T07:11:49;10.11;52.05
65637;DHT22;52327;42.622;23.316;2023-02-19T07:14:16;10.18;51.99
65637;DHT22;52327;42.622;23.316;2023-02-19T07:16:42;10.22;51.36
65637;DHT22;52327;42.622;23.316;2023-02-19T07:19:08;10.25;52.20
65637;DHT22;52327;42.622;23.316;2023-02-19T07:21:34;10.41;51.22
65637;DHT22;52327;42.622;23.316;2023-02-19T07:24:02;10.48;51.21
65637;DHT22;52327;42.622;23.316;2023-02-19T07:26:29;10.75;50.62
65637;DHT22;52327;42.622;23.316;2023-02-19T07:28:54;10.83;50.10
65637;DHT22;52327;42.622;23.316;2023-02-19T07:31:22;10.88;50.37
65637;DHT22;52327;42.622;23.316;2023-02-19T07:33:47;10.91;50.11
65637;DHT22;52327;42.622;23.316;2023-02-19T07:36:14;10.95;50.55
65637;DHT22;52327;42.622;23.316;2023-02-19T07:38:41;10.89;50.36
65637;DHT22;52327;42.622;23.316;2023-02-19T07:41:06;10.82;50.89
65637;DHT22;52327;42.622;23.316;2023-02-19T07:43:34;10.88;51.47
65637;DHT22;52327;42.622;23.316;2023-02-19T07:46:07;10.73;50.40
65637;DHT22;52327;42.622;23.316;2023-02-19T07:48:34;10.68;50.52
65637;DHT22;52327;42.622;23.316;2023-02-19T07:51:00;10.72;51.31
65637;DHT22;52327;42.622;23.316;2023-02-19T07:53:27;10.73;50.72
65637;DHT22;52327;42.622;23.316;2023-02-19T07:55:53;10.66;50.72
65637;DHT22;52327;42.622;23.316;2023-02-19T07:58:20;10.62;51.25
65637;DHT22;52327;42.622;23.316;2023-02-19T08:00:45;10.79;51.59
65637;DHT22;52327;42.622;23.316;2023-02-19T08:03:11;10.89;52.31
65637;DHT22;52327;42.622;23.316;2023-02-19T08:05:38;11.12;52.79
65637;DHT22;52327;42.622;23.316;2023-02-19T08:08:05;11.33;51.89
65637;DHT22;52327;42.622;23.316;2023-02-19T08:10:31;11.48;51.17
65637;DHT22;52327;42.622;23.316;2023-02-19T08:13:16;11.43;51.63
65637;DHT22;52327;42.622;23.316;2023-02-19T08:18:30;11.78;50.68
65637;DHT22;52327;42.622;23.316;2023-02-19T08:20:56;11.75;50.01
65637;DHT22;52327;42.622;23.316;2023-02-19T08:23:22;11.86;50.17
65637;DHT22;52327;42.622;23.316;2023-02-19T08:25:50;11.95;49.08
65637;DHT22;52327;42.622;23.316;2023-02-19T08:28:16;12.02;49.35
65637;DHT22;52327;42.622;23.316;2023-02-19T08:30:44;12.08;49.49
65637;DHT22;52327;42.622;23.316;2023-02-19T08:33:16;11.89;49.54
65637;DHT22;52327;42.622;23.316;2023-02-19T08:35:42;11.88;48.93
65637;DHT22;52327;42.622;23.316;2023-02-19T08:38:09;11.96;49.08
65637;DHT22;52327;42.622;23.316;2023-02-19T08:40:36;12.05;49.13
65637;DHT22;52327;42.622;23.316;2023-02-19T08:45:29;12.09;48.25
65637;DHT22;52327;42.622;23.316;2023-02-19T08:47:54;12.15;48.73
65637;DHT22;52327;42.622;23.316;2023-02-19T08:50:20;12.15;48.21
65637;DHT22;52327;42.622;23.316;2023-02-19T08:52:46;12.21;48.11
65637;DHT22;52327;42.622;23.316;2023-02-19T08:55:12;12.35;47.97
65637;DHT22;52327;42.622;23.316;2023-02-19T08:57:37;12.45;48.15
65637;DHT22;52327;42.622;23.316;2023-02-19T09:00:04;12.56;48.46
65637;DHT22;52327;42.622;23.316;2023-02-19T09:02:30;12.64;47.97
65637;DHT22;52327;42.622;23.316;2023-02-19T09:04:55;12.70;48.60
65637;DHT22;52327;42.622;23.316;2023-02-19T09:07:21;12.86;47.82
65637;DHT22;52327;42.622;23.316;2023-02-19T09:09:47;12.91;48.20
65637;DHT22;52327;42.622;23.316;2023-02-19T09:12:12;12.96;48.09
65637;DHT22;52327;42.622;23.316;2023-02-19T09:14:41;12.97;46.54
65637;DHT22;52327;42.622;23.316;2023-02-19T09:17:09;13.10;47.17
65637;DHT22;52327;42.622;23.316;2023-02-19T09:19:35;13.19;47.50
65637;DHT22;52327;42.622;23.316;2023-02-19T09:22:02;13.21;47.34
65637;DHT22;52327;42.622;23.316;2023-02-19T09:24:27;13.17;47.53
65637;DHT22;52327;42.622;23.316;2023-02-19T09:26:53;13.04;47.27
65637;DHT22;52327;42.622;23.316;2023-02-19T09:29:20;13.12;47.87
65637;DHT22;52327;42.622;23.316;2023-02-19T09:31:46;13.24;47.27
65637;DHT22;52327;42.622;23.316;2023-02-19T09:34:12;13.25;47.89
65637;DHT22;52327;42.622;23.316;2023-02-19T09:36:38;13.32;48.02
65637;DHT22;52327;42.622;23.316;2023-02-19T09:39:05;13.41;47.22
65637;DHT22;52327;42.622;23.316;2023-02-19T09:42:08;13.55;46.56
65637;DHT22;52327;42.622;23.316;2023-02-19T09:44:38;13.55;45.56
65637;DHT22;52327;42.622;23.316;2023-02-19T09:47:16;13.69;45.69
65637;DHT22;52327;42.622;23.316;2023-02-19T09:49:43;13.18;44.90
65637;DHT22;52327;42.622;23.316;2023-02-19T09:52:17;12.98;45.58
65637;DHT22;52327;42.622;23.316;2023-02-19T09:54:44;12.91;45.90
65637;DHT22;52327;42.622;23.316;2023-02-19T09:57:16;13.07;45.96
65637;DHT22;52327;42.622;23.316;2023-02-19T10:02:50;13.17;45.03
65637;DHT22;52327;42.622;23.316;2023-02-19T10:05:15;13.22;45.23
65637;DHT22;52327;42.622;23.316;2023-02-19T10:07:50;13.35;45.12
65637;DHT22;52327;42.622;23.316;2023-02-19T10:10:34;13.24;44.84
65637;DHT22;52327;42.622;23.316;2023-02-19T10:13:15;13.25;45.23
65637;DHT22;52327;42.622;23.316;2023-02-19T10:16:03;13.22;45.11
65637;DHT22;52327;42.622;23.316;2023-02-19T10:18:37;13.18;45.65
65637;DHT22;52327;42.622;23.316;2023-02-19T10:21:04;13.24;45.50
65637;DHT22;52327;42.622;23.316;2023-02-19T10:23:30;13.41;44.91
65637;DHT22;52327;42.622;23.316;2023-02-19T10:25:57;13.61;44.92
65637;DHT22;52327;42.622;23.316;2023-02-19T10:28:29;13.75;44.86
65637;DHT22;52327;42.622;23.316;2023-02-19T10:30:57;13.70;44.51
65637;DHT22;52327;42.622;23.316;2023-02-19T10:33:23;13.61;44.53
65637;DHT22;52327;42.622;23.316;2023-02-19T10:36:04;13.85;44.07
65637;DHT22;52327;42.622;23.316;2023-02-19T10:38:49;14.02;44.06
65637;DHT22;52327;42.622;23.316;2023-02-19T10:41:17;13.92;44.10
65637;DHT22;52327;42.622;23.316;2023-02-19T10:43:55;14.08;43.93
65637;DHT22;52327;42.622;23.316;2023-02-19T10:46:24;14.33;43.71
65637;DHT22;52327;42.622;23.316;2023-02-19T10:48:53;14.44;42.55
65637;DHT22;52327;42.622;23.316;2023-02-19T10:51:21;14.47;43.20
65637;DHT22;52327;42.622;23.316;2023-02-19T10:54:04;14.57;42.25
65637;DHT22;52327;42.622;23.316;2023-02-19T10:56:30;14.44;41.89
65637;DHT22;52327;42.622;23.316;2023-02-19T11:01:53;14.57;42.54
65637;DHT22;52327;42.622;23.316;2023-02-19T11:04:20;14.82;41.82
65637;DHT22;52327;42.622;23.316;2023-02-19T11:06:45;14.82;41.70
65637;DHT22;52327;42.622;23.316;2023-02-19T11:09:30;14.89;42.56
65637;DHT22;52327;42.622;23.316;2023-02-19T11:11:57;15.02;41.73
65637;DHT22;52327;42.622;23.316;2023-02-19T11:14:24;15.15;41.05
65637;DHT22;52327;42.622;23.316;2023-02-19T11:16:55;15.29;41.14
65637;DHT22;52327;42.622;23.316;2023-02-19T11:19:28;15.40;41.59
65637;DHT22;52327;42.622;23.316;2023-02-19T11:21:56;15.40;41.45
65637;DHT22;52327;42.622;23.316;2023-02-19T11:24:30;15.32;42.41
65637;DHT22;52327;42.622;23.316;2023-02-19T11:26:58;15.36;42.74
65637;DHT22;52327;42.622;23.316;2023-02-19T11:29:24;15.28;42.55
65637;DHT22;52327;42.622;23.316;2023-02-19T11:31:53;15.26;43.15
65637;DHT22;52327;42.622;23.316;2023-02-19T11:37:11;15.36;41.65
65637;DHT22;52327;42.622;23.316;2023-02-19T11:39:38;15.40;41.76
65637;DHT22;52327;42.622;23.316;2023-02-19T11:50:26;15.50;41.30
65637;DHT22;52327;42.622;23.316;2023-02-19T11:53:12;15.53;41.16
65637;DHT22;52327;42.622;23.316;2023-02-19T11:56:17;15.56;41.37
65637;DHT22;52327;42.622;23.316;2023-02-19T11:59:02;15.66;41.49
65637;DHT22;52327;42.622;23.316;2023-02-19T12:01:52;15.70;40.28
65637;DHT22;52327;42.622;23.316;2023-02-19T12:10:22;15.91;39.08
65637;DHT22;52327;42.622;23.316;2023-02-19T12:15:58;15.91;39.41
65637;DHT22;52327;42.622;23.316;2023-02-19T12:21:13;16.32;39.00
65637;DHT22;52327;42.622;23.316;2023-02-19T12:27:04;16.65;37.53
65637;DHT22;52327;42.622;23.316;2023-02-19T12:33:09;16.93;37.78
65637;DHT22;52327;42.622;23.316;2023-02-19T12:36:02;16.97;37.14
65637;DHT22;52327;42.622;23.316;2023-02-19T12:38:35;17.02;38.03
65637;DHT22;52327;42.622;23.316;2023-02-19T12:44:00;17.51;36.81
65637;DHT22;52327;42.622;23.316;2023-02-19T12:46:32;17.68;36.55
65637;DHT22;52327;42.622;23.316;2023-02-19T12:49:06;17.88;36.07
65637;DHT22;52327;42.622;23.316;2023-02-19T12:51:58;18.06;35.22
65637;DHT22;52327;42.622;23.316;2023-02-19T12:54:34;18.18;35.36
65637;DHT22;52327;42.622;23.316;2023-02-19T12:57:14;17.95;35.91
65637;DHT22;52327;42.622;23.316;2023-02-19T13:02:47;17.89;35.52
65637;DHT22;52327;42.622;23.316;2023-02-19T13:12:59;18.13;34.77
65637;DHT22;52327;42.622;23.316;2023-02-19T13:15:46;18.15;34.81
65637;DHT22;52327;42.622;23.316;2023-02-19T13:18:26;18.18;34.51
65637;DHT22;52327;42.622;23.316;2023-02-19T13:20:53;18.24;34.59
65637;DHT22;52327;42.622;23.316;2023-02-19T13:23:24;18.02;37.33
65637;DHT22;52327;42.622;23.316;2023-02-19T13:36:34;18.25;34.79
65637;DHT22;52327;42.622;23.316;2023-02-19T13:39:01;18.35;35.28
65637;DHT22;52327;42.622;23.316;2023-02-19T13:41:29;18.53;34.08
65637;DHT22;52327;42.622;23.316;2023-02-19T13:43:56;18.57;34.32
65637;DHT22;52327;42.622;23.316;2023-02-19T13:46:22;18.52;34.61
65637;DHT22;52327;42.622;23.316;2023-02-19T13:48:48;18.50;34.98
65637;DHT22;52327;42.622;23.316;2023-02-19T13:53:59;18.36;35.71
65637;DHT22;52327;42.622;23.316;2023-02-19T13:58:58;18.40;36.92
65637;DHT22;52327;42.622;23.316;2023-02-19T14:04:17;18.25;37.03
65637;DHT22;52327;42.622;23.316;2023-02-19T14:14:37;18.42;37.64
65637;DHT22;52327;42.622;23.316;2023-02-19T14:17:04;18.87;36.44
65637;DHT22;52327;42.622;23.316;2023-02-19T14:25:05;18.12;38.03
65637;DHT22;52327;42.622;23.316;2023-02-19T14:27:33;17.54;38.63
65637;DHT22;52327;42.622;23.316;2023-02-19T14:29:58;16.89;40.24
65637;DHT22;52327;42.622;23.316;2023-02-19T14:32:24;16.58;40.46
65637;DHT22;52327;42.622;23.316;2023-02-19T14:34:49;16.71;41.19
65637;DHT22;52327;42.622;23.316;2023-02-19T14:37:20;16.79;39.72
65637;DHT22;52327;42.622;23.316;2023-02-19T14:39:46;16.76;40.66
65637;DHT22;52327;42.622;23.316;2023-02-19T14:42:15;16.68;41.33
65637;DHT22;52327;42.622;23.316;2023-02-19T14:44:51;16.61;41.84
65637;DHT22;52327;42.622;23.316;2023-02-19T14:47:19;16.68;41.33
65637;DHT22;52327;42.622;23.316;2023-02-19T14:50:19;16.76;40.52
65637;DHT22;52327;42.622;23.316;2023-02-19T14:52:38;16.82;41.30
65637;DHT22;52327;42.622;23.316;2023-02-19T14:55:05;16.90;39.42
65637;DHT22;52327;42.622;23.316;2023-02-19T14:57:33;16.73;40.82
65637;DHT22;52327;42.622;23.316;2023-02-19T15:00:00;16.44;39.30
65637;DHT22;52327;42.622;23.316;2023-02-19T15:02:27;15.93;40.73
65637;DHT22;52327;42.622;23.316;2023-02-19T15:04:53;15.62;40.64
65637;DHT22;52327;42.622;23.316;2023-02-19T15:07:36;15.57;41.40
65637;DHT22;52327;42.622;23.316;2023-02-19T15:10:02;15.64;40.55
65637;DHT22;52327;42.622;23.316;2023-02-19T15:12:31;15.52;40.25
65637;DHT22;52327;42.622;23.316;2023-02-19T15:14:58;15.60;40.02
65637;DHT22;52327;42.622;23.316;2023-02-19T15:17:26;15.57;38.61
65637;DHT22;52327;42.622;23.316;2023-02-19T15:19:52;15.38;39.38
65637;DHT22;52327;42.622;23.316;2023-02-19T15:22:20;15.28;38.05
65637;DHT22;52327;42.622;23.316;2023-02-19T15:24:45;15.25;38.54
65637;DHT22;52327;42.622;23.316;2023-02-19T15:27:17;15.18;39.68
65637;DHT22;52327;42.622;23.316;2023-02-19T15:29:47;15.16;39.87
65637;DHT22;52327;42.622;23.316;2023-02-19T15:32:18;15.13;39.68
65637;DHT22;52327;42.622;23.316;2023-02-19T15:34:52;15.03;38.47
65637;DHT22;52327;42.622;23.316;2023-02-19T15:37:18;15.03;39.88
65637;DHT22;52327;42.622;23.316;2023-02-19T15:39:44;15.02;40.22
65637;DHT22;52327;42.622;23.316;2023-02-19T15:42:14;14.93;40.41
65637;DHT22;52327;42.622;23.316;2023-02-19T15:47:11;14.45;40.38
65637;DHT22;52327;42.622;23.316;2023-02-19T15:57:22;14.36;42.18
65637;DHT22;52327;42.622;23.316;2023-02-19T15:59:50;14.16;42.99
65637;DHT22;52327;42.622;23.316;2023-02-19T16:02:18;14.10;43.88
65637;DHT22;52327;42.622;23.316;2023-02-19T16:04:44;14.00;44.99
65637;DHT22;52327;42.622;23.316;2023-02-19T16:09:47;13.86;44.92
65637;DHT22;52327;42.622;23.316;2023-02-19T16:12:19;13.65;45.15
65637;DHT22;52327;42.622;23.316;2023-02-19T16:14:45;13.70;45.52
65637;DHT22;52327;42.622;23.316;2023-02-19T16:22:07;12.96;49.45
65637;DHT22;52327;42.622;23.316;2023-02-19T16:24:34;12.75;48.78
65637;DHT22;52327;42.622;23.316;2023-02-19T16:27:01;12.81;49.45
65637;DHT22;52327;42.622;23.316;2023-02-19T16:29:30;12.72;49.28
65637;DHT22;52327;42.622;23.316;2023-02-19T16:31:59;12.57;49.13
65637;DHT22;52327;42.622;23.316;2023-02-19T16:34:47;12.28;50.46
65637;DHT22;52327;42.622;23.316;2023-02-19T16:42:33;11.70;52.01
65637;DHT22;52327;42.622;23.316;2023-02-19T16:44:58;11.71;52.66
65637;DHT22;52327;42.622;23.316;2023-02-19T16:47:44;11.71;53.15
65637;DHT22;52327;42.622;23.316;2023-02-19T16:50:22;11.82;52.74
65637;DHT22;52327;42.622;23.316;2023-02-19T16:52:54;11.78;52.44
65637;DHT22;52327;42.622;23.316;2023-02-19T16:55:20;11.73;53.35
65637;DHT22;52327;42.622;23.316;2023-02-19T16:57:45;11.55;53.26
65637;DHT22;52327;42.622;23.316;2023-02-19T17:00:15;11.50;53.57
65637;DHT22;52327;42.622;23.316;2023-02-19T17:02:41;11.48;53.44
65637;DHT22;52327;42.622;23.316;2023-02-19T17:05:06;11.36;53.61
65637;DHT22;52327;42.622;23.316;2023-02-19T17:07:31;11.26;53.50
65637;DHT22;52327;42.622;23.316;2023-02-19T17:09:57;11.10;53.61
65637;DHT22;52327;42.622;23.316;2023-02-19T17:12:23;10.93;54.25
65637;DHT22;52327;42.622;23.316;2023-02-19T17:14:48;10.88;54.18
65637;DHT22;52327;42.622;23.316;2023-02-19T17:17:14;10.95;53.19
65637;DHT22;52327;42.622;23.316;2023-02-19T17:19:39;10.88;54.72
65637;DHT22;52327;42.622;23.316;2023-02-19T17:22:04;10.88;53.98
65637;DHT22;52327;42.622;23.316;2023-02-19T17:24:30;10.86;53.88
65637;DHT22;52327;42.622;23.316;2023-02-19T17:26:55;10.91;53.08
65637;DHT22;52327;42.622;23.316;2023-02-19T17:29:21;11.04;53.56
65637;DHT22;52327;42.622;23.316;2023-02-19T17:31:46;11.12;51.34
65637;DHT22;52327;42.622;23.316;2023-02-19T17:34:12;11.30;50.09
65637;DHT22;52327;42.622;23.316;2023-02-19T17:36:37;11.45;48.22
65637;DHT22;52327;42.622;23.316;2023-02-19T17:39:03;11.43;50.86
65637;DHT22;52327;42.622;23.316;2023-02-19T17:41:31;11.54;48.81
65637;DHT22;52327;42.622;23.316;2023-02-19T17:43:56;11.53;48.52
65637;DHT22;52327;42.622;23.316;2023-02-19T17:46:22;11.48;47.87
65637;DHT22;52327;42.622;23.316;2023-02-19T17:48:48;11.48;47.23
65637;DHT22;52327;42.622;23.316;2023-02-19T17:51:14;11.51;47.84
65637;DHT22;52327;42.622;23.316;2023-02-19T17:53:39;11.60;48.74
65637;DHT22;52327;42.622;23.316;2023-02-19T17:56:05;11.40;49.14
65637;DHT22;52327;42.622;23.316;2023-02-19T17:58:30;11.48;46.30